Time;durP1;ratioP1;P1;durP2;ratioP2;P2;SDS_P1;SDS_P2;PMS_P1;PMS_P2;Temp;Humidity;BMP_temperature;BMP_pressure;BME280_temperature;BME280_humidity;BME280_pressure;Samples;Min_cycle;Max_cycle;Signal;HPM_P1;HPM_P2
2023/03/06 00:01:02;;;;;;;;;;;;;;;16.72;58.19;98136.13;2064346;28;20056;-56
2023/03/06 00:02:03;;;;;;;;;;;;;;;16.72;58.20;98138.00;2068179;28;19933;-55
2023/03/06 00:03:04;;;;;;;;;;;;;;;16.71;58.00;98136.34;2065625;28;19975;-58
2023/03/06 00:04:06;;;;;;;;;;;;;;;16.70;58.27;98138.19;2065485;28;19925;-55
2023/03/06 00:05:08;;;;;;;;;;;;;;;16.70;58.21;98140.88;2061610;28;19929;-56
2023/03/06 00:06:08;;;;;;;;;;;;;;;16.67;58.16;98133.25;2064109;28;19937;-57
2023/03/06 00:07:10;;;;;;;;;;;;;;;16.70;58.13;98137.38;2063993;28;19929;-58
2023/03/06 00:08:10;;;;;;;;;;;;;;;16.69;58.13;98139.22;2065588;28;20384;-58
2023/03/06 00:09:12;;;;;;;;;;;;;;;16.69;58.19;98133.06;2062679;28;20027;-57
2023/03/06 00:10:13;;;;;;;;;;;;;;;16.68;58.10;98126.84;2065028;28;19933;-55
2023/03/06 00:11:15;;;;;;;;;;;;;;;16.68;58.11;98134.88;2065089;28;19955;-56
2023/03/06 00:12:15;;;;;;;;;;;;;;;16.69;58.15;98133.06;2065333;28;19964;-58
2023/03/06 00:13:18;;;;;;;;;;;;;;;16.67;58.12;98133.25;2063132;28;19947;-57
2023/03/06 00:14:19;;;;;;;;;;;;;;;16.67;58.19;98130.56;2060514;28;19937;-58
2023/03/06 00:15:20;;;;;;;;;;;;;;;16.66;58.21;98128.94;2065347;28;19936;-57
2023/03/06 00:16:21;;;;;;;;;;;;;;;16.66;58.14;98130.75;2065233;28;19960;-56
2023/03/06 00:17:23;;;;;;;;;;;;;;;16.65;58.11;98132.63;2070256;28;20407;-57
2023/03/06 00:18:24;;;;;;;;;;;;;;;16.64;58.07;98122.94;2069308;28;19925;-56
2023/03/06 00:19:25;;;;;;;;;;;;;;;16.66;58.02;98128.94;2064908;28;19929;-57
2023/03/06 00:20:26;;;;;;;;;;;;;;;16.66;58.04;98128.06;2063428;28;19929;-55
2023/03/06 00:21:27;;;;;;;;;;;;;;;16.64;58.11;98125.63;2056742;28;19983;-59
2023/03/06 00:22:28;;;;;;;;;;;;;;;16.64;58.14;98125.63;2060147;28;20023;-57
2023/03/06 00:23:29;;;;;;;;;;;;;;;16.65;58.12;98121.09;2063245;28;19933;-57
2023/03/06 00:24:29;;;;;;;;;;;;;;;16.64;58.10;98120.25;2064019;28;19929;-58
2023/03/06 00:25:31;;;;;;;;;;;;;;;16.64;58.13;98122.94;2064438;28;20033;-58
2023/03/06 00:26:32;;;;;;;;;;;;;;;16.63;58.16;98121.31;2065684;28;19987;-59
2023/03/06 00:27:34;;;;;;;;;;;;;;;16.63;58.15;98118.63;2063381;28;20020;-56
2023/03/06 00:28:36;;;;;;;;;;;;;;;16.64;58.12;98119.44;2060455;28;19929;-56
2023/03/06 00:29:37;;;;;;;;;;;;;;;16.62;58.17;98116.97;2063559;28;20322;-57
2023/03/06 00:30:38;;;;;;;;;;;;;;;16.61;58.13;98115.31;2059823;28;20491;-58
2023/03/06 00:31:39;;;;;;;;;;;;;;;16.60;58.18;98116.31;2064837;28;19937;-58
2023/03/06 00:32:40;;;;;;;;;;;;;;;16.62;58.08;98116.13;2069190;28;19980;-57
2023/03/06 00:33:42;;;;;;;;;;;;;;;16.61;58.18;98114.50;2069065;28;19983;-57
2023/03/06 00:34:42;;;;;;;;;;;;;;;16.62;57.98;98116.97;2065511;28;20770;-57
2023/03/06 00:35:44;;;;;;;;;;;;;;;16.61;58.07;98115.31;2068114;28;20922;-57
2023/03/06 00:36:44;;;;;;;;;;;;;;;16.60;58.08;98113.66;2066678;28;20284;-54
2023/03/06 00:37:46;;;;;;;;;;;;;;;16.62;58.03;98116.13;2068359;28;19941;-59
2023/03/06 00:38:46;;;;;;;;;;;;;;;16.62;58.04;98108.94;2068796;28;19926;-53
2023/03/06 00:39:49;;;;;;;;;;;;;;;16.64;57.84;98111.41;2070131;28;19971;-62
2023/03/06 00:40:49;;;;;;;;;;;;;;;16.61;58.00;98112.63;2067488;28;19933;-59
2023/03/06 00:41:51;;;;;;;;;;;;;;;16.60;58.07;98102.94;2069035;28;19975;-60
2023/03/06 00:42:51;;;;;;;;;;;;;;;16.60;57.98;98104.81;2067388;28;20023;-62
2023/03/06 00:43:54;;;;;;;;;;;;;;;16.59;58.02;98109.34;2069615;28;19929;-55
2023/03/06 00:44:54;;;;;;;;;;;;;;;16.60;58.02;98108.28;2068501;28;20013;-59
2023/03/06 00:45:56;;;;;;;;;;;;;;;16.60;57.88;98108.28;2074404;28;19940;-56
2023/03/06 00:46:56;;;;;;;;;;;;;;;16.60;57.91;98110.97;2072827;28;20374;-57
2023/03/06 00:47:58;;;;;;;;;;;;;;;16.61;57.94;98109.16;2076851;28;19929;-53
2023/03/06 00:48:58;;;;;;;;;;;;;;;16.61;57.97;98103.78;2076158;28;19925;-53
2023/03/06 00:50:00;;;;;;;;;;;;;;;16.57;57.90;98098.00;2076147;28;20447;-57
2023/03/06 00:51:00;;;;;;;;;;;;;;;16.57;58.08;98097.19;2073843;28;20055;-59
2023/03/06 00:52:02;;;;;;;;;;;;;;;16.58;57.99;98101.53;2075545;28;19926;-56
2023/03/06 00:53:02;;;;;;;;;;;;;;;16.59;57.90;98090.59;2074450;28;20863;-55
2023/03/06 00:54:04;;;;;;;;;;;;;;;16.58;57.91;98094.31;2076399;28;19932;-55
2023/03/06 00:55:05;;;;;;;;;;;;;;;16.59;57.93;98087.91;2074884;28;19925;-55
2023/03/06 00:56:07;;;;;;;;;;;;;;;16.58;57.89;98083.59;2076450;28;20399;-54
2023/03/06 00:57:08;;;;;;;;;;;;;;;16.59;57.96;98082.56;2075803;28;19925;-58
2023/03/06 00:58:10;;;;;;;;;;;;;;;16.57;57.96;98086.47;2076397;28;20052;-53
2023/03/06 00:59:12;;;;;;;;;;;;;;;16.56;57.96;98074.94;2075686;28;19929;-58
2023/03/06 01:00:13;;;;;;;;;;;;;;;16.56;58.24;98074.13;2075351;28;20870;-53
2023/03/06 01:01:14;;;;;;;;;;;;;;;16.56;57.91;98074.94;2076568;28;20862;-60
2023/03/06 01:02:15;;;;;;;;;;;;;;;16.54;58.05;98072.44;2073733;28;19933;-60
2023/03/06 01:03:16;;;;;;;;;;;;;;;16.54;57.98;98069.78;2074306;28;20484;-53
2023/03/06 01:04:17;;;;;;;;;;;;;;;16.54;58.04;98072.44;2076406;28;19925;-53
2023/03/06 01:05:18;;;;;;;;;;;;;;;16.54;57.95;98071.63;2074861;28;19929;-49
2023/03/06 01:06:19;;;;;;;;;;;;;;;16.52;58.00;98073.72;2077024;28;21860;-53
2023/03/06 01:07:19;;;;;;;;;;;;;;;16.52;57.95;98063.00;2076034;28;19929;-60
2023/03/06 01:08:21;;;;;;;;;;;;;;;16.53;57.90;98065.47;2072978;28;20512;-58
2023/03/06 01:09:21;;;;;;;;;;;;;;;16.52;57.97;98055.78;2075892;28;19929;-51
2023/03/06 01:10:23;;;;;;;;;;;;;;;16.53;57.91;98054.75;2076383;28;19929;-57
2023/03/06 01:11:23;;;;;;;;;;;;;;;16.54;57.87;98060.94;2075245;28;19925;-55
2023/03/06 01:12:25;;;;;;;;;;;;;;;16.53;57.98;98053.94;2077979;28;19925;-59
2023/03/06 01:13:25;;;;;;;;;;;;;;;16.53;57.92;98056.63;2076284;28;19960;-58
2023/03/06 01:14:30;;;;;;;;;;;;;;;16.52;57.87;98054.97;2075466;28;20497;-59
2023/03/06 01:15:30;;;;;;;;;;;;;;;16.52;57.91;98052.31;2075538;28;20011;-55
2023/03/06 01:16:31;;;;;;;;;;;;;;;16.52;57.84;98057.66;2070457;28;20011;-59
2023/03/06 01:17:32;;;;;;;;;;;;;;;16.52;57.86;98057.66;2068229;28;19933;-63
2023/03/06 01:18:33;;;;;;;;;;;;;;;16.51;57.74;98062.16;2067059;28;19932;-52
2023/03/06 01:19:34;;;;;;;;;;;;;;;16.51;57.88;98050.63;2072497;28;20465;-58
2023/03/06 01:20:35;;;;;;;;;;;;;;;16.51;57.91;98064.00;2075873;28;19929;-52
2023/03/06 01:21:36;;;;;;;;;;;;;;;16.50;57.92;98057.84;2067650;28;20280;-60
2023/03/06 01:22:37;;;;;;;;;;;;;;;16.52;57.84;98052.31;2067455;28;20486;-56
2023/03/06 01:23:38;;;;;;;;;;;;;;;16.51;57.88;98051.44;2066551;28;19946;-58
2023/03/06 01:24:39;;;;;;;;;;;;;;;16.50;57.88;98055.16;2068160;28;19976;-61
2023/03/06 01:25:40;;;;;;;;;;;;;;;16.53;57.84;98059.28;2066976;28;20276;-57
2023/03/06 01:26:41;;;;;;;;;;;;;;;16.51;57.87;98055.97;2068443;28;19972;-54
2023/03/06 01:27:42;;;;;;;;;;;;;;;16.50;57.93;98057.03;2069929;28;19936;-59
2023/03/06 01:28:43;;;;;;;;;;;;;;;16.50;57.91;98055.16;2066408;28;19933;-59
2023/03/06 01:29:45;;;;;;;;;;;;;;;16.49;57.90;98055.34;2068857;28;19983;-58
2023/03/06 01:30:47;;;;;;;;;;;;;;;16.50;57.83;98049.00;2067819;28;21327;-54
2023/03/06 01:31:47;;;;;;;;;;;;;;;16.49;57.80;98053.53;2069275;28;19929;-61
2023/03/06 01:32:48;;;;;;;;;;;;;;;16.49;57.79;98052.69;2069589;28;19937;-59
2023/03/06 01:33:49;;;;;;;;;;;;;;;16.49;57.79;98050.00;2068161;28;19979;-58
2023/03/06 01:34:50;;;;;;;;;;;;;;;16.49;57.76;98053.53;2069718;28;20833;-52
2023/03/06 01:35:51;;;;;;;;;;;;;;;16.48;57.86;98045.69;2068412;28;20026;-52
2023/03/06 01:36:52;;;;;;;;;;;;;;;16.50;57.73;98043.63;2067767;28;20066;-58
2023/03/06 01:37:53;;;;;;;;;;;;;;;16.47;57.86;98049.41;2071748;28;19933;-55
2023/03/06 01:38:54;;;;;;;;;;;;;;;16.46;57.80;98053.09;2068618;28;20589;-57
2023/03/06 01:39:55;;;;;;;;;;;;;;;16.47;57.84;98038.69;2069178;28;19925;-61
2023/03/06 01:40:56;;;;;;;;;;;;;;;16.48;57.85;98045.69;2067743;28;19936;-53
2023/03/06 01:41:57;;;;;;;;;;;;;;;16.49;57.72;98050.00;2068564;28;20960;-60
2023/03/06 01:42:58;;;;;;;;;;;;;;;16.46;57.76;98045.88;2066367;28;19968;-54
2023/03/06 01:43:59;;;;;;;;;;;;;;;16.47;57.77;98044.88;2067453;28;19935;-54
2023/03/06 01:45:04;;;;;;;;;;;;;;;16.47;57.78;98044.06;2068514;28;20007;-53
2023/03/06 01:46:22;;;;;;;;;;;;;;;16.46;57.77;98045.88;2067978;28;19925;-58
2023/03/06 01:47:24;;;;;;;;;;;;;;;16.46;57.72;98045.06;2065919;28;20084;-57
2023/03/06 01:48:24;;;;;;;;;;;;;;;16.45;57.76;98038.88;2069312;28;19933;-56
2023/03/06 01:49:28;;;;;;;;;;;;;;;16.47;57.74;98039.50;2067862;28;19937;-53
2023/03/06 01:50:28;;;;;;;;;;;;;;;16.45;57.63;98036.22;2070466;28;20509;-53
2023/03/06 01:51:32;;;;;;;;;;;;;;;16.45;57.64;98033.53;2067853;28;19929;-57
2023/03/06 01:52:35;;;;;;;;;;;;;;;16.45;57.70;98030.03;2069082;28;19933;-53
2023/03/06 01:53:36;;;;;;;;;;;;;;;16.47;57.60;98033.34;2065584;28;19933;-54
2023/03/06 01:54:40;;;;;;;;;;;;;;;16.46;57.73;98026.31;2067169;28;20760;-58
2023/03/06 01:55:41;;;;;;;;;;;;;;;16.46;57.66;98021.78;2066653;28;19929;-59
2023/03/06 01:56:43;;;;;;;;;;;;;;;16.46;57.72;98020.97;2068243;28;19979;-53
2023/03/06 01:57:46;;;;;;;;;;;;;;;16.46;57.73;98026.31;2066317;28;21036;-53
2023/03/06 01:58:48;;;;;;;;;;;;;;;16.45;57.63;98030.03;2066307;28;19929;-55
2023/03/06 01:59:53;;;;;;;;;;;;;;;16.44;57.65;98029.22;2067752;28;20366;-57
2023/03/06 02:00:55;;;;;;;;;;;;;;;16.44;57.62;98028.41;2068351;28;19940;-49
2023/03/06 02:01:58;;;;;;;;;;;;;;;16.43;57.65;98019.53;2067713;28;19976;-51
2023/03/06 02:03:01;;;;;;;;;;;;;;;16.45;57.57;98020.16;2067155;28;19929;-54
2023/03/06 02:04:02;;;;;;;;;;;;;;;16.44;57.64;98028.41;2066924;28;19929;-54
2023/03/06 02:05:03;;;;;;;;;;;;;;;16.44;57.58;98017.69;2069880;28;19933;-56
2023/03/06 02:06:05;;;;;;;;;;;;;;;16.44;57.65;98021.19;2075079;28;19933;-55
2023/03/06 02:07:06;;;;;;;;;;;;;;;16.44;57.73;98023.88;2073263;28;19992;-55
2023/03/06 02:08:08;;;;;;;;;;;;;;;16.43;57.75;98018.69;2075496;28;20472;-54
2023/03/06 02:09:09;;;;;;;;;;;;;;;16.46;57.58;98026.31;2075263;28;19982;-60
2023/03/06 02:10:12;;;;;;;;;;;;;;;16.44;57.58;98017.69;2073404;28;19933;-54
2023/03/06 02:11:13;;;;;;;;;;;;;;;16.42;57.64;98023.25;2075439;28;19937;-57
2023/03/06 02:12:17;;;;;;;;;;;;;;;16.42;57.55;98020.56;2073694;28;19940;-52
2023/03/06 02:13:18;;;;;;;;;;;;;;;16.43;57.74;98024.06;2076117;28;19929;-57
2023/03/06 02:14:19;;;;;;;;;;;;;;;16.43;57.57;98018.69;2075733;28;19968;-60
2023/03/06 02:15:21;;;;;;;;;;;;;;;16.43;57.58;98018.69;2074774;28;19933;-58
2023/03/06 02:16:26;;;;;;;;;;;;;;;16.43;57.64;98018.69;2075742;28;19925;-53
2023/03/06 02:17:26;;;;;;;;;;;;;;;16.42;57.65;98022.41;2071788;28;19933;-56
2023/03/06 02:18:28;;;;;;;;;;;;;;;16.40;57.57;98014.59;2069503;28;20269;-59
2023/03/06 02:19:35;;;;;;;;;;;;;;;16.40;57.64;98013.75;2075310;28;19926;-59
2023/03/06 02:20:39;;;;;;;;;;;;;;;16.39;57.66;98004.09;2070007;28;19935;-61
2023/03/06 02:21:39;;;;;;;;;;;;;;;16.40;57.61;98006.56;2073443;28;19929;-57
2023/03/06 02:22:45;;;;;;;;;;;;;;;16.38;57.66;98005.09;2068319;28;19990;-60
2023/03/06 02:23:50;;;;;;;;;;;;;;;16.40;57.70;98003.06;2068027;28;20436;-57
2023/03/06 02:24:56;;;;;;;;;;;;;;;16.40;57.60;98003.88;2066620;28;21852;-57
2023/03/06 02:25:59;;;;;;;;;;;;;;;16.40;57.63;97992.34;2066874;28;20902;-53
2023/03/06 02:27:03;;;;;;;;;;;;;;;16.38;57.58;97994.41;2066058;28;19933;-53
2023/03/06 02:28:04;;;;;;;;;;;;;;;16.36;57.61;97991.13;2067291;28;20449;-56
2023/03/06 02:29:07;;;;;;;;;;;;;;;16.38;57.71;97997.06;2069477;28;19934;-56
2023/03/06 02:30:09;;;;;;;;;;;;;;;16.36;57.56;97991.94;2067416;28;19940;-56
2023/03/06 02:31:19;;;;;;;;;;;;;;;16.38;57.58;97992.56;2067339;28;20028;-56
2023/03/06 02:32:20;;;;;;;;;;;;;;;16.36;57.54;97986.59;2065041;28;19933;-57
2023/03/06 02:33:22;;;;;;;;;;;;;;;16.36;57.64;97981.25;2070297;28;20027;-55
2023/03/06 02:34:57;;;;;;;;;;;;;;;16.36;57.52;97983.09;2069257;28;19924;-60
2023/03/06 02:35:58;;;;;;;;;;;;;;;16.34;57.61;97985.97;2038034;28;19931;-52
2023/03/06 02:37:01;;;;;;;;;;;;;;;16.35;57.57;97979.56;2038200;28;19926;-52
2023/03/06 02:38:05;;;;;;;;;;;;;;;16.35;57.52;97987.59;2033196;28;20464;-60
2023/03/06 02:39:06;;;;;;;;;;;;;;;16.36;57.56;97983.91;2032604;28;20004;-60
2023/03/06 02:40:11;;;;;;;;;;;;;;;16.36;57.54;97988.44;2030990;28;20137;-58
2023/03/06 02:41:13;;;;;;;;;;;;;;;16.35;57.69;97981.44;2030235;28;19938;-59
2023/03/06 02:42:18;;;;;;;;;;;;;;;16.36;57.69;97988.44;2068204;28;20409;-57
2023/03/06 02:43:21;;;;;;;;;;;;;;;16.33;57.56;97984.31;2069704;28;19929;-58
2023/03/06 02:44:24;;;;;;;;;;;;;;;16.35;57.54;97989.47;2067935;28;19933;-56
2023/03/06 02:45:30;;;;;;;;;;;;;;;16.35;57.61;97986.78;2071416;28;19929;-56
2023/03/06 02:46:30;;;;;;;;;;;;;;;16.36;57.48;97983.09;2070713;28;19994;-59
2023/03/06 02:47:32;;;;;;;;;;;;;;;16.33;57.65;97980.84;2073155;28;20003;-60
2023/03/06 02:48:32;;;;;;;;;;;;;;;16.31;57.63;97976.50;2070245;28;20492;-58
2023/03/06 02:49:34;;;;;;;;;;;;;;;16.34;57.64;97979.78;2068996;28;21141;-59
2023/03/06 02:50:34;;;;;;;;;;;;;;;16.31;57.56;97979.16;2069647;28;19929;-59
2023/03/06 02:51:36;;;;;;;;;;;;;;;16.33;57.55;97972.81;2067758;28;20403;-59
2023/03/06 02:52:36;;;;;;;;;;;;;;;16.33;57.59;97970.94;2069171;28;20984;-54
2023/03/06 02:53:37;;;;;;;;;;;;;;;16.33;57.63;97967.44;2072492;28;19991;-53
2023/03/06 02:54:38;;;;;;;;;;;;;;;16.34;57.60;97975.25;2072883;28;20027;-58
2023/03/06 02:55:40;;;;;;;;;;;;;;;16.33;57.54;97967.44;2071063;28;19925;-60
2023/03/06 02:56:42;;;;;;;;;;;;;;;16.34;57.58;97969.09;2073833;28;20357;-60
2023/03/06 02:57:43;;;;;;;;;;;;;;;16.32;57.62;97963.94;2070076;28;19994;-56
2023/03/06 02:58:44;;;;;;;;;;;;;;;16.31;57.54;97964.97;2072894;28;20051;-55
2023/03/06 02:59:45;;;;;;;;;;;;;;;16.30;57.53;97964.16;2071844;28;20086;-54
2023/03/06 03:00:46;;;;;;;;;;;;;;;16.30;57.57;97958.78;2069516;28;20018;-57
2023/03/06 03:01:47;;;;;;;;;;;;;;;16.30;57.59;97960.66;2071394;28;20022;-54
2023/03/06 03:02:47;;;;;;;;;;;;;;;16.28;57.54;97962.72;2074190;28;20319;-57
2023/03/06 03:03:49;;;;;;;;;;;;;;;16.28;57.63;97966.19;2072732;28;19929;-53
2023/03/06 03:04:49;;;;;;;;;;;;;;;16.28;57.61;97960.03;2074250;28;20873;-58
2023/03/06 03:05:51;;;;;;;;;;;;;;;16.29;57.61;97965.16;2072668;28;19933;-56
2023/03/06 03:06:51;;;;;;;;;;;;;;;16.28;57.53;97960.84;2067812;28;19940;-57
2023/03/06 03:07:53;;;;;;;;;;;;;;;16.28;57.62;97963.53;2070437;28;20484;-60
2023/03/06 03:08:53;;;;;;;;;;;;;;;16.30;57.53;97964.16;2069998;28;19971;-59
2023/03/06 03:09:55;;;;;;;;;;;;;;;16.28;57.51;97958.16;2071616;28;19929;-61
2023/03/06 03:10:55;;;;;;;;;;;;;;;16.28;57.52;97963.53;2070636;28;20296;-54
2023/03/06 03:11:58;;;;;;;;;;;;;;;16.28;57.51;97970.72;2072817;28;19990;-61
2023/03/06 03:13:00;;;;;;;;;;;;;;;16.28;57.43;97968.06;2072372;28;20469;-58
2023/03/06 03:14:00;;;;;;;;;;;;;;;16.25;57.46;97966.59;2070680;28;20415;-60
2023/03/06 03:15:01;;;;;;;;;;;;;;;16.27;57.46;97969.91;2069267;28;19933;-54
2023/03/06 03:16:03;;;;;;;;;;;;;;;16.27;57.55;97963.75;2070207;28;20006;-60
2023/03/06 03:17:05;;;;;;;;;;;;;;;16.25;57.71;97966.59;2068554;28;19925;-57
2023/03/06 03:18:05;;;;;;;;;;;;;;;16.25;57.72;97960.44;2073395;28;20383;-52
2023/03/06 03:19:07;;;;;;;;;;;;;;;16.25;57.66;97958.59;2071503;28;19940;-59
2023/03/06 03:20:09;;;;;;;;;;;;;;;16.26;57.63;97960.22;2064236;28;20908;-58
2023/03/06 03:21:12;;;;;;;;;;;;;;;16.26;57.55;97957.53;2065147;28;19976;-59
2023/03/06 03:22:12;;;;;;;;;;;;;;;16.26;57.58;97956.72;2068800;28;19933;-54
2023/03/06 03:23:13;;;;;;;;;;;;;;;16.24;57.57;97953.41;2069977;28;19929;-61
2023/03/06 03:24:15;;;;;;;;;;;;;;;16.25;57.48;97955.91;2065530;28;19925;-61
2023/03/06 03:25:17;;;;;;;;;;;;;;;16.25;57.56;97952.41;2061843;28;20770;-52
2023/03/06 03:26:18;;;;;;;;;;;;;;;16.24;57.63;97958.78;2064702;28;20784;-55
2023/03/06 03:27:21;;;;;;;;;;;;;;;16.23;57.45;97959.81;2063563;28;23313;-58
2023/03/06 03:28:22;;;;;;;;;;;;;;;16.23;57.61;97955.28;2068665;28;19929;-60
2023/03/06 03:29:23;;;;;;;;;;;;;;;16.23;57.55;97951.78;2066873;28;20067;-60
2023/03/06 03:30:24;;;;;;;;;;;;;;;16.22;57.64;97956.31;2068339;28;19929;-57
2023/03/06 03:31:25;;;;;;;;;;;;;;;16.23;57.64;97954.47;2064964;28;19929;-53
2023/03/06 03:32:26;;;;;;;;;;;;;;;16.21;57.56;97957.31;2062459;28;22106;-56
2023/03/06 03:33:27;;;;;;;;;;;;;;;16.23;57.61;97952.59;2066968;28;19933;-62
2023/03/06 03:34:27;;;;;;;;;;;;;;;16.22;57.61;97959.00;2068812;28;20009;-60
2023/03/06 03:35:29;;;;;;;;;;;;;;;16.22;57.66;97952.81;2060799;28;20023;-56
2023/03/06 03:36:29;;;;;;;;;;;;;;;16.22;57.47;97950.16;2061478;28;19933;-58
2023/03/06 03:37:31;;;;;;;;;;;;;;;16.21;57.58;97953.84;2063219;28;19972;-56
2023/03/06 03:38:32;;;;;;;;;;;;;;;16.20;57.59;97947.66;2060007;28;19979;-57
2023/03/06 03:39:33;;;;;;;;;;;;;;;16.21;57.59;97949.31;2062946;28;19996;-58
2023/03/06 03:40:33;;;;;;;;;;;;;;;16.21;57.70;97951.16;2058594;28;19937;-57
2023/03/06 03:41:35;;;;;;;;;;;;;;;16.20;57.57;97942.31;2061492;28;20568;-59
2023/03/06 03:42:37;;;;;;;;;;;;;;;16.20;57.60;97955.69;2058536;28;19964;-55
2023/03/06 03:43:38;;;;;;;;;;;;;;;16.19;57.62;97955.91;2057742;28;20016;-55
2023/03/06 03:44:39;;;;;;;;;;;;;;;16.20;57.57;97960.22;2056972;28;19933;-58
2023/03/06 03:45:40;;;;;;;;;;;;;;;16.22;57.59;97958.19;2058489;28;19944;-57
2023/03/06 03:46:41;;;;;;;;;;;;;;;16.20;57.60;97958.38;2058837;28;19941;-58
2023/03/06 03:47:42;;;;;;;;;;;;;;;16.18;57.65;97949.72;2067750;28;19925;-57
2023/03/06 03:48:43;;;;;;;;;;;;;;;16.17;57.67;97948.06;2062382;28;20315;-55
2023/03/06 03:49:44;;;;;;;;;;;;;;;16.16;57.71;97948.25;2061473;28;19968;-59
2023/03/06 03:50:45;;;;;;;;;;;;;;;16.17;57.67;97948.06;2065940;28;19940;-57
2023/03/06 03:51:46;;;;;;;;;;;;;;;16.18;57.52;97949.72;2064550;28;20415;-55
2023/03/06 03:52:47;;;;;;;;;;;;;;;16.16;57.59;97937.56;2063568;28;19929;-57
2023/03/06 03:53:49;;;;;;;;;;;;;;;16.16;57.62;97940.25;2061471;28;20461;-57
2023/03/06 03:54:49;;;;;;;;;;;;;;;16.15;57.64;97939.41;2064641;28;19930;-59
2023/03/06 03:55:51;;;;;;;;;;;;;;;16.15;57.60;97941.28;2057797;28;22052;-56
2023/03/06 03:56:51;;;;;;;;;;;;;;;16.13;57.65;97938.81;2061370;28;19983;-56
2023/03/06 03:57:54;;;;;;;;;;;;;;;16.15;57.74;97944.78;2060445;28;19929;-57
2023/03/06 03:58:54;;;;;;;;;;;;;;;16.14;57.57;97937.78;2059953;28;19934;-57
2023/03/06 03:59:56;;;;;;;;;;;;;;;16.15;57.56;97934.06;2059370;28;19933;-56
2023/03/06 04:00:56;;;;;;;;;;;;;;;16.16;57.55;97940.25;2059236;28;19929;-56
2023/03/06 04:01:58;;;;;;;;;;;;;;;16.13;57.65;97938.81;2060620;28;19929;-56
2023/03/06 04:02:58;;;;;;;;;;;;;;;16.13;57.58;97937.97;2058104;28;22369;-58
2023/03/06 04:04:00;;;;;;;;;;;;;;;16.14;57.54;97935.13;2057801;28;19933;-58
2023/03/06 04:05:00;;;;;;;;;;;;;;;16.14;57.51;97936.97;2060509;28;19968;-56
2023/03/06 04:06:02;;;;;;;;;;;;;;;16.12;57.59;97934.47;2059179;28;19940;-55
2023/03/06 04:07:03;;;;;;;;;;;;;;;16.12;57.49;97937.16;2062570;28;19937;-57
2023/03/06 04:08:04;;;;;;;;;;;;;;;16.12;57.58;97941.69;2067674;28;20801;-57
2023/03/06 04:09:05;;;;;;;;;;;;;;;16.11;57.63;97940.88;2066828;28;19933;-56
2023/03/06 04:10:08;;;;;;;;;;;;;;;16.11;57.75;97935.53;2062808;28;19928;-58
2023/03/06 04:11:09;;;;;;;;;;;;;;;16.12;57.60;97939.00;2060522;28;19933;-55
2023/03/06 04:12:10;;;;;;;;;;;;;;;16.11;57.56;97935.53;2061485;28;20016;-57
2023/03/06 04:13:12;;;;;;;;;;;;;;;16.11;57.59;97940.06;2056841;28;20104;-57
2023/03/06 04:14:13;;;;;;;;;;;;;;;16.12;57.61;97939.00;2061767;28;20409;-58
2023/03/06 04:15:14;;;;;;;;;;;;;;;16.12;57.75;97933.66;2057829;28;20464;-59
2023/03/06 04:16:15;;;;;;;;;;;;;;;16.11;57.60;97935.53;2063798;28;19929;-59
2023/03/06 04:17:16;;;;;;;;;;;;;;;16.09;57.69;97929.53;2058457;28;19936;-56
2023/03/06 04:18:18;;;;;;;;;;;;;;;16.11;57.52;97937.38;2057810;28;20327;-58
2023/03/06 04:19:18;;;;;;;;;;;;;;;16.10;57.53;97936.53;2063028;28;19928;-59
2023/03/06 04:20:20;;;;;;;;;;;;;;;16.10;57.54;97936.53;2060986;28;19936;-57
2023/03/06 04:21:20;;;;;;;;;;;;;;;16.12;57.56;97939.84;2062535;28;19975;-59
2023/03/06 04:22:22;;;;;;;;;;;;;;;16.11;57.51;97935.53;2070248;28;20292;-56
2023/03/06 04:23:23;;;;;;;;;;;;;;;16.10;57.64;97941.88;2062646;28;20880;-58
2023/03/06 04:24:25;;;;;;;;;;;;;;;16.08;57.60;97934.06;2065286;28;22301;-57
2023/03/06 04:25:25;;;;;;;;;;;;;;;16.07;57.61;97937.78;2060327;28;20357;-59
2023/03/06 04:26:26;;;;;;;;;;;;;;;16.06;57.67;97936.13;2063793;28;19955;-57
2023/03/06 04:27:27;;;;;;;;;;;;;;;16.06;57.68;97935.31;2059475;28;19974;-57
2023/03/06 04:28:30;;;;;;;;;;;;;;;16.07;57.64;97935.13;2060358;28;20678;-57
2023/03/06 04:29:30;;;;;;;;;;;;;;;16.06;57.69;97929.97;2059806;28;20020;-56
2023/03/06 04:30:32;;;;;;;;;;;;;;;16.05;57.58;97926.47;2057628;28;19941;-59
2023/03/06 04:31:32;;;;;;;;;;;;;;;16.07;57.70;97923.56;2064446;28;19975;-54
2023/03/06 04:32:34;;;;;;;;;;;;;;;16.06;57.60;97917.41;2063669;28;20386;-59
2023/03/06 04:33:34;;;;;;;;;;;;;;;16.06;57.55;97916.59;2064752;28;19983;-55
2023/03/06 04:34:36;;;;;;;;;;;;;;;16.07;57.63;97920.91;2065836;28;19929;-58
2023/03/06 04:35:36;;;;;;;;;;;;;;;16.11;57.52;97911.44;2060596;28;20024;-56
2023/03/06 04:36:43;;;;;;;;;;;;;;;16.13;57.46;97908.56;2063712;28;19940;-57
2023/03/06 04:37:44;;;;;;;;;;;;;;;16.17;57.38;97905.28;2059247;28;20311;-57
2023/03/06 04:38:45;;;;;;;;;;;;;;;16.18;57.35;97904.22;2059975;28;19933;-56
2023/03/06 04:39:46;;;;;;;;;;;;;;;16.22;57.28;97902.81;2058951;28;19933;-56
2023/03/06 04:40:48;;;;;;;;;;;;;;;16.25;57.31;97907.75;2057742;28;19929;-57
2023/03/06 04:41:48;;;;;;;;;;;;;;;16.29;57.30;97911.63;2059691;28;19933;-57
2023/03/06 04:42:50;;;;;;;;;;;;;;;16.31;57.19;97906.91;2059892;28;19990;-57
2023/03/06 04:43:52;;;;;;;;;;;;;;;16.35;57.26;97899.28;2060956;28;21562;-56
2023/03/06 04:44:53;;;;;;;;;;;;;;;16.40;57.16;97906.72;2061617;28;19929;-58
2023/03/06 04:45:54;;;;;;;;;;;;;;;16.42;57.21;97904.66;2070596;28;19972;-58
2023/03/06 04:46:55;;;;;;;;;;;;;;;16.47;57.12;97904.84;2074956;28;20540;-59
2023/03/06 04:47:56;;;;;;;;;;;;;;;16.51;57.08;97911.44;2066827;28;20946;-57
2023/03/06 04:48:57;;;;;;;;;;;;;;;16.53;57.07;97904.84;2067573;28;19933;-60
2023/03/06 04:49:58;;;;;;;;;;;;;;;16.57;57.15;97907.09;2072817;28;19937;-57
2023/03/06 04:50:59;;;;;;;;;;;;;;;16.61;56.95;97895.78;2073732;28;19933;-57
2023/03/06 04:51:59;;;;;;;;;;;;;;;16.63;56.97;97903.59;2066844;28;19934;-56
2023/03/06 04:53:02;;;;;;;;;;;;;;;16.65;57.00;97910.38;2066450;28;19933;-57
2023/03/06 04:54:03;;;;;;;;;;;;;;;16.68;56.92;97906.47;2072458;28;19929;-59
2023/03/06 04:55:07;;;;;;;;;;;;;;;16.70;56.94;97899.88;2068739;28;19995;-59
2023/03/06 04:56:08;;;;;;;;;;;;;;;16.73;56.81;97898.63;2070262;28;20048;-56
2023/03/06 04:57:10;;;;;;;;;;;;;;;16.75;56.75;97902.75;2071587;28;19929;-59
2023/03/06 04:58:11;;;;;;;;;;;;;;;16.77;56.77;97894.56;2071661;28;19941;-57
2023/03/06 04:59:13;;;;;;;;;;;;;;;16.78;56.89;97895.38;2067745;28;19929;-59
2023/03/06 05:00:15;;;;;;;;;;;;;;;16.79;56.81;97892.47;2068758;28;19933;-56
2023/03/06 05:01:17;;;;;;;;;;;;;;;16.83;56.71;97895.56;2066318;28;19971;-57
2023/03/06 05:02:17;;;;;;;;;;;;;;;16.85;56.74;97896.97;2067641;28;20283;-58
2023/03/06 05:03:19;;;;;;;;;;;;;;;16.87;56.71;97891.41;2070698;28;20024;-55
2023/03/06 05:04:19;;;;;;;;;;;;;;;16.89;56.70;97894.72;2069718;28;19940;-55
2023/03/06 05:05:21;;;;;;;;;;;;;;;16.89;56.69;97892.88;2069451;28;20469;-55
2023/03/06 05:06:21;;;;;;;;;;;;;;;16.91;56.66;97884.59;2069897;28;19929;-55
2023/03/06 05:07:22;;;;;;;;;;;;;;;16.91;56.61;97889.97;2067451;28;19941;-55
2023/03/06 05:08:23;;;;;;;;;;;;;;;16.93;56.63;97883.34;2068410;28;19982;-55
2023/03/06 05:09:24;;;;;;;;;;;;;;;16.95;56.59;97891.19;2071227;28;20007;-53
2023/03/06 05:10:25;;;;;;;;;;;;;;;16.96;56.65;97887.47;2074734;28;19929;-57
2023/03/06 05:11:26;;;;;;;;;;;;;;;16.98;56.72;97882.72;2068967;28;19925;-57
2023/03/06 05:12:27;;;;;;;;;;;;;;;16.98;56.61;97888.09;2069308;28;24412;-57
2023/03/06 05:13:29;;;;;;;;;;;;;;;17.01;56.52;97878.81;2070428;28;19934;-55
2023/03/06 05:14:31;;;;;;;;;;;;;;;17.01;56.51;97882.31;2074576;28;20403;-56
2023/03/06 05:15:32;;;;;;;;;;;;;;;17.02;56.53;97878.63;2071948;28;19933;-56
2023/03/06 05:16:32;;;;;;;;;;;;;;;17.02;56.49;97881.28;2070111;28;19933;-55
2023/03/06 05:17:34;;;;;;;;;;;;;;;17.04;56.50;97873.03;2063670;28;20469;-54
2023/03/06 05:18:36;;;;;;;;;;;;;;;17.05;56.53;97878.19;2060697;28;19929;-56
2023/03/06 05:19:36;;;;;;;;;;;;;;;17.06;56.45;97882.50;2064840;28;19929;-53
2023/03/06 05:20:38;;;;;;;;;;;;;;;17.08;56.41;97880.44;2067121;28;20534;-57
2023/03/06 05:21:39;;;;;;;;;;;;;;;17.06;56.43;97882.50;2071690;28;20594;-57